Flight Track Log - Related Links

Times and Time Zones

All times are in EDT time to prevent confusion due to time zone crossing. See the SWA318 flight status page for this flight to view local times or setup timezone preferences in your user account.

Time Position Orientation Groundspeed Altitude Reporting Facility
EDT Latitude Longitude Course Direction KTS MPH feet Rate Location/Type
06:54PM 38.1186 -85.7206 90° East 190 219 3,800  Level FAA TRACON SMA TRACON (SMA)
06:54PM 38.1017 -85.7125 159° South 207 238 4,500 2,550 Climbing FAA TRACON SMA TRACON (SMA)
06:54PM 38.0831 -85.7036 159° South 229 264 5,500 3,538 Climbing FAA TRACON SMA TRACON (SMA)
06:55PM 38.0583 -85.6889 155° Southeast 254 292 6,800 3,600 Climbing FAA TRACON SMA TRACON (SMA)
06:55PM 38.0467 -85.6617 119° Southeast 288 331 7,900 3,659 Climbing FAA TRACON SMA TRACON (SMA)
06:55PM 38.0489 -85.6186 86° East 320 368 9,300 3,750 Climbing FAA TRACON SMA TRACON (SMA)
06:56PM 38.0528 -85.5831 82° East 328 377 10,400 2,400 Climbing FAA TRACON SMA TRACON (SMA)
06:56PM 38.0561 -85.5458 84° East 341 392 10,900 2,780 Climbing FAA TRACON SMA TRACON (SMA)
06:56PM 38.0614 -85.4967 82° East 363 418 12,300 4,000 Climbing FAA TRACON SMA TRACON (SMA)
06:57PM 38.0653 -85.4569 83° East 367 422 13,500 3,385 Climbing FAA TRACON SMA TRACON (SMA)
06:57PM 38.0711 -85.4167 80° East 371 427 14,500 2,850 Climbing FAA TRACON SMA TRACON (SMA)
06:57PM 38.0772 -85.3761 79° East 378 435 15,400 3,231 Climbing FAA TRACON SMA TRACON (SMA)
06:58PM 38.0850 -85.3244 79° East 386 444 16,600 3,073 Climbing FAA TRACON SMA TRACON (SMA)
06:58PM 38.0914 -85.2819 79° East 393 452 17,500 3,000 Climbing FAA TRACON SMA TRACON (SMA)
06:58PM 38.0972 -85.2392 80° East 399 459 18,600 2,930 Climbing FAA TRACON SMA TRACON (SMA)
06:59PM 38.0333 -85.0373 90° East  Level FlightAware Approximate
06:59PM 38.1067 -85.1722 80° East 413 475 19,600  Level FAA TRACON SMA TRACON (SMA)
06:59PM 38.1122 -85.1267 81° East 423 487 20,400 2,333 Climbing FAA TRACON SMA TRACON (SMA)
06:59PM 38.1167 -85.0914 81° East 430 495 21,000 2,526 Climbing FAA TRACON SMA TRACON (SMA)
07:00PM 38.1228 -85.0325 82° East 438 504 22,000 2,550 Climbing FAA TRACON SMA TRACON (SMA)
07:00PM 38.1283 -84.9842 82° East 445 512 22,700 1,538 Climbing FAA TRACON SMA TRACON (SMA)
07:00PM 38.1333 -84.9356 83° East 450 518 23,000 439 Climbing FAA TRACON SMA TRACON (SMA)
07:01PM 38.1408 -84.8750 81° East 450 518 23,000  Level FAA TRACON SMA TRACON (SMA)
07:01PM 38.1458 -84.8267 82° East 448 516 23,000  Level FAA TRACON SMA TRACON (SMA)
07:01PM 38.1506 -84.7789 83° East 446 513 23,000  Level FAA TRACON SMA TRACON (SMA)
07:02PM 38.1583 -84.7194 81° East 444 511 23,000  Level FAA TRACON SMA TRACON (SMA)
07:02PM 38.1633 -84.6714 82° East 442 509 23,000  Level FAA TRACON SMA TRACON (SMA)
07:02PM 38.1689 -84.6236 82° East 443 510 23,000 150 Level FAA TRACON SMA TRACON (SMA)
07:03PM 38.1750 -84.5644 82° East 441 507 23,100 1,200 Climbing FAA TRACON SMA TRACON (SMA)
07:03PM 38.1803 -84.5158 82° East 445 512 23,800 1,950 Climbing FAA TRACON SMA TRACON (SMA)
07:03PM 38.1864 -84.4672 81° East 450 518 24,400 2,298 Climbing FAA TRACON SMA TRACON (SMA)
07:04PM 38.2058 -84.2708 83° East 456 525 27,400 2,058 Climbing Indianapolis Center
07:06PM 38.2211 -84.1056 83° East 467 537 29,100 1,500 Climbing Indianapolis Center
07:07PM 38.2342 -83.9356 84° East 480 552 30,500 1,317 Climbing Indianapolis Center
07:08PM 38.2467 -83.7575 85° East 499 574 31,800 390 Climbing Indianapolis Center
07:09PM 38.2600 -83.5764 85° East 510 587 31,300 -732 Descending Indianapolis Center
07:10PM 38.2725 -83.3983 85° East 507 583 30,300 -1,024 Descending Indianapolis Center
07:11PM 38.2892 -83.1906 84° East 503 579 29,200 -634 Descending Indianapolis Center
07:12PM 38.3053 -83.0122 83° East 504 580 29,000 -98 Descending Indianapolis Center
07:13PM 38.3217 -82.8350 83° East 503 579 29,000  Level Indianapolis Center
07:14PM 38.3378 -82.6589 83° East 499 574 29,000  Level Indianapolis Center
07:15PM 38.3469 -82.4869 86° East 499 574 29,000  Level Indianapolis Center
07:16PM 38.3467 -82.3106 90° East 499 574 29,000  Level Indianapolis Center
07:17PM 38.3481 -82.1389 89° East 490 564 29,000  Level Indianapolis Center
07:18PM 38.3494 -81.9669 89° East 488 562 29,000  Level Indianapolis Center
07:19PM 38.3497 -81.7589 90° East 492 566 29,000  Level Indianapolis Center
07:20PM 38.3447 -81.5864 92° East 493 567 29,000  Level Indianapolis Center
07:21PM 38.3383 -81.4114 93° East 499 574 29,000  Level Indianapolis Center
07:22PM 38.3325 -81.2361 92° East 501 577 29,000  Level Indianapolis Center
07:23PM 38.3267 -81.0614 92° East 498 573 29,000  Level Indianapolis Center
07:24PM 38.3200 -80.8856 93° East 501 577 29,000  Level Indianapolis Center
07:25PM 38.3136 -80.7100 93° East 500 575 29,000  Level Indianapolis Center
07:26PM 38.3067 -80.4989 92° East 498 573 29,000  Level Indianapolis Center
07:27PM 38.2983 -80.3356 94° East 501 577 29,000  Level Washington Center
07:28PM 38.2928 -80.1606 92° East 501 577 29,000 -150 Level Washington Center
07:29PM 38.2847 -79.9831 93° East 501 577 28,700 -500 Descending Washington Center
07:30PM 38.2769 -79.7919 93° East 501 577 28,000 -350 Descending Washington Center
07:31PM 38.2703 -79.6222 93° East 488 562 28,000  Level Washington Center
07:32PM 38.2633 -79.4528 93° East 478 550 28,000  Level Washington Center
07:33PM 38.2811 -79.2869 82° East 478 550 28,000  Level Washington Center
07:34PM 38.3233 -79.1275 71° East 478 550 28,000 -400 Level Washington Center
07:35PM 38.3631 -78.9839 71° East 478 550 27,200 -900 Descending Washington Center
07:36PM 38.4008 -78.8267 73° East 473 544 26,200 -1,000 Descending Washington Center
07:37PM 38.4406 -78.6667 72° East 468 539 25,200 -1,000 Descending Washington Center
07:38PM 38.4797 -78.5144 72° East 462 532 24,200 -1,000 Descending Washington Center
07:39PM 38.5186 -78.3619 72° East 456 525 23,200 -600 Descending Washington Center
07:40PM 38.5575 -78.2094 72° East 451 519 23,000 -500 Descending Washington Center
07:41PM 38.5919 -78.0672 73° East 439 505 22,200 -1,600 Descending Washington Center
07:42PM 38.6261 -77.9222 73° East 428 493 19,800 -1,600 Descending Washington Center
07:43PM 38.6475 -77.7794 79° East 417 480 19,000 -400 Descending Washington Center
07:44PM 38.6542 -77.6361 87° East 411 473 19,000 -309 Level Washington Center
07:45PM 38.6667 -77.5333 81° East 395 455 18,500 -1,732 Descending Potomac TRACON
07:46PM 38.6667 -77.4000 90° East 392 451 16,200 -1,350 Descending Potomac TRACON
07:47PM 38.6833 -77.2667 81° East 385 443 15,800 -1,250 Descending Potomac TRACON
07:48PM 38.6833 -77.1333 90° East 373 429 13,700 -2,100 Descending Potomac TRACON
07:49PM 38.7000 -77.0000 81° East 366 421 11,600 -1,750 Descending Potomac TRACON
07:50PM 38.7000 -76.8667 90° East 350 403 10,200 -1,084 Descending Potomac TRACON
07:50PM 38.6964 -76.8419 101° East 358 412 10,100 -1,100 Descending Washington Center
07:52PM 38.7333 -76.6667 75° East 306 352 8,000 -1,362 Descending Potomac TRACON
07:53PM 38.7833 -76.5500 61° Northeast 304 350 6,400 -1,400 Descending Potomac TRACON
07:54PM 38.8500 -76.5333 11° North 296 341 5,200 -1,200 Descending Potomac TRACON
07:55PM 38.9333 -76.5833 335° Northwest 284 327 4,000 -600 Descending Potomac TRACON
07:56PM 38.9833 -76.6333 322° Northwest 272 313 4,000 -421 Level Potomac TRACON
07:57PM 39.0167 -76.7167 297° West 266 306 3,200 -939 Descending Potomac TRACON
07:58PM 39.0667 -76.7667 322° Northwest 271 312 2,200 -626 Descending Potomac TRACON
07:59PM 39.1333 -76.8000 339° North 232 267 2,000 -429 Descending Potomac TRACON
08:00PM 39.1833 -76.7667 27° Northeast 179 206 1,300 -645 Descending Potomac TRACON
08:01PM 39.1833 -76.7333 90° East 125 144 700 -655 Descending Potomac TRACON
08:03PM 39.1667 -76.6667 102° East  Level FlightAware Approximate
08:10PM 39.1754 -76.6683 102° East  Level Estimated
08:11PM 39.1754 -76.6683 102° East  Level Estimated
08:12PM 39.1754 -76.6683 102° East  Level Estimated

Login

Don't have an account? Register now (free) for customized features, flight alerts, and more!